sensor_id;sensor_type;location;lat;lon;timestamp;P1;durP1;ratioP1;P2;durP2;ratioP2
6392;SDS011;3229;42.674;23.282;2023-05-07T00:00:21;7.70;;;6.23;;
6392;SDS011;3229;42.674;23.282;2023-05-07T00:02:48;8.87;;;6.27;;
6392;SDS011;3229;42.674;23.282;2023-05-07T00:05:16;7.87;;;6.23;;
6392;SDS011;3229;42.674;23.282;2023-05-07T00:07:43;9.03;;;6.50;;
6392;SDS011;3229;42.674;23.282;2023-05-07T00:10:10;8.47;;;5.80;;
6392;SDS011;3229;42.674;23.282;2023-05-07T00:12:38;8.43;;;6.97;;
6392;SDS011;3229;42.674;23.282;2023-05-07T00:15:06;7.60;;;6.00;;
6392;SDS011;3229;42.674;23.282;2023-05-07T00:17:34;10.13;;;6.27;;
6392;SDS011;3229;42.674;23.282;2023-05-07T00:20:01;7.47;;;5.87;;
6392;SDS011;3229;42.674;23.282;2023-05-07T00:22:30;11.20;;;5.70;;
6392;SDS011;3229;42.674;23.282;2023-05-07T00:24:57;7.00;;;6.00;;
6392;SDS011;3229;42.674;23.282;2023-05-07T00:27:25;7.37;;;5.53;;
6392;SDS011;3229;42.674;23.282;2023-05-07T00:29:52;6.70;;;5.90;;
6392;SDS011;3229;42.674;23.282;2023-05-07T00:32:19;8.77;;;6.17;;
6392;SDS011;3229;42.674;23.282;2023-05-07T00:34:45;6.00;;;5.40;;
6392;SDS011;3229;42.674;23.282;2023-05-07T00:37:12;7.80;;;6.10;;
6392;SDS011;3229;42.674;23.282;2023-05-07T00:39:40;7.97;;;6.13;;
6392;SDS011;3229;42.674;23.282;2023-05-07T00:42:07;7.73;;;5.70;;
6392;SDS011;3229;42.674;23.282;2023-05-07T00:44:34;7.23;;;5.57;;
6392;SDS011;3229;42.674;23.282;2023-05-07T00:47:01;6.47;;;5.83;;
6392;SDS011;3229;42.674;23.282;2023-05-07T00:49:32;6.43;;;5.53;;
6392;SDS011;3229;42.674;23.282;2023-05-07T00:52:04;7.33;;;5.60;;
6392;SDS011;3229;42.674;23.282;2023-05-07T00:54:32;6.63;;;5.10;;
6392;SDS011;3229;42.674;23.282;2023-05-07T00:57:01;8.77;;;5.53;;
6392;SDS011;3229;42.674;23.282;2023-05-07T00:59:28;6.80;;;5.43;;
6392;SDS011;3229;42.674;23.282;2023-05-07T01:01:56;6.07;;;5.47;;
6392;SDS011;3229;42.674;23.282;2023-05-07T01:04:23;6.93;;;5.57;;
6392;SDS011;3229;42.674;23.282;2023-05-07T01:06:50;7.13;;;5.83;;
6392;SDS011;3229;42.674;23.282;2023-05-07T01:09:17;9.07;;;5.93;;
6392;SDS011;3229;42.674;23.282;2023-05-07T01:11:46;6.13;;;5.43;;
6392;SDS011;3229;42.674;23.282;2023-05-07T01:14:15;6.73;;;5.47;;
6392;SDS011;3229;42.674;23.282;2023-05-07T01:16:43;7.90;;;5.43;;
6392;SDS011;3229;42.674;23.282;2023-05-07T01:19:10;7.97;;;5.10;;
6392;SDS011;3229;42.674;23.282;2023-05-07T01:21:39;7.43;;;5.60;;
6392;SDS011;3229;42.674;23.282;2023-05-07T01:24:13;6.47;;;5.37;;
6392;SDS011;3229;42.674;23.282;2023-05-07T01:26:40;6.70;;;5.40;;
6392;SDS011;3229;42.674;23.282;2023-05-07T01:29:07;7.27;;;5.33;;
6392;SDS011;3229;42.674;23.282;2023-05-07T01:31:34;6.90;;;5.57;;
6392;SDS011;3229;42.674;23.282;2023-05-07T01:34:03;6.10;;;5.03;;
6392;SDS011;3229;42.674;23.282;2023-05-07T01:36:33;7.43;;;5.57;;
6392;SDS011;3229;42.674;23.282;2023-05-07T01:39:01;8.00;;;5.70;;
6392;SDS011;3229;42.674;23.282;2023-05-07T01:41:30;6.20;;;5.53;;
6392;SDS011;3229;42.674;23.282;2023-05-07T01:43:57;7.63;;;5.53;;
6392;SDS011;3229;42.674;23.282;2023-05-07T01:46:26;6.33;;;5.73;;
6392;SDS011;3229;42.674;23.282;2023-05-07T01:48:53;7.33;;;5.60;;
6392;SDS011;3229;42.674;23.282;2023-05-07T01:51:20;6.73;;;4.97;;
6392;SDS011;3229;42.674;23.282;2023-05-07T01:53:47;6.70;;;5.33;;
6392;SDS011;3229;42.674;23.282;2023-05-07T01:56:15;6.70;;;5.40;;
6392;SDS011;3229;42.674;23.282;2023-05-07T01:58:45;6.80;;;5.23;;
6392;SDS011;3229;42.674;23.282;2023-05-07T02:01:12;8.50;;;5.40;;
6392;SDS011;3229;42.674;23.282;2023-05-07T02:03:39;5.80;;;5.20;;
6392;SDS011;3229;42.674;23.282;2023-05-07T02:06:06;6.20;;;4.83;;
6392;SDS011;3229;42.674;23.282;2023-05-07T02:08:33;5.73;;;5.13;;
6392;SDS011;3229;42.674;23.282;2023-05-07T02:11:00;7.67;;;4.77;;
6392;SDS011;3229;42.674;23.282;2023-05-07T02:13:28;6.20;;;4.93;;
6392;SDS011;3229;42.674;23.282;2023-05-07T02:15:57;6.10;;;4.47;;
6392;SDS011;3229;42.674;23.282;2023-05-07T02:18:24;6.93;;;5.27;;
6392;SDS011;3229;42.674;23.282;2023-05-07T02:20:51;6.60;;;5.03;;
6392;SDS011;3229;42.674;23.282;2023-05-07T02:23:18;5.73;;;4.13;;
6392;SDS011;3229;42.674;23.282;2023-05-07T02:25:44;5.30;;;4.47;;
6392;SDS011;3229;42.674;23.282;2023-05-07T02:28:11;5.40;;;4.53;;
6392;SDS011;3229;42.674;23.282;2023-05-07T02:30:38;7.10;;;5.00;;
6392;SDS011;3229;42.674;23.282;2023-05-07T02:33:06;8.63;;;5.00;;
6392;SDS011;3229;42.674;23.282;2023-05-07T02:35:34;7.03;;;4.40;;
6392;SDS011;3229;42.674;23.282;2023-05-07T02:38:01;5.30;;;4.80;;
6392;SDS011;3229;42.674;23.282;2023-05-07T02:40:28;5.27;;;4.73;;
6392;SDS011;3229;42.674;23.282;2023-05-07T02:42:55;11.27;;;5.57;;
6392;SDS011;3229;42.674;23.282;2023-05-07T02:45:21;5.23;;;4.40;;
6392;SDS011;3229;42.674;23.282;2023-05-07T02:47:48;4.97;;;4.47;;
6392;SDS011;3229;42.674;23.282;2023-05-07T02:50:16;7.40;;;5.10;;
6392;SDS011;3229;42.674;23.282;2023-05-07T02:52:43;7.60;;;5.20;;
6392;SDS011;3229;42.674;23.282;2023-05-07T02:55:10;5.90;;;5.10;;
6392;SDS011;3229;42.674;23.282;2023-05-07T02:57:37;6.23;;;4.77;;
6392;SDS011;3229;42.674;23.282;2023-05-07T03:00:11;10.20;;;5.07;;
6392;SDS011;3229;42.674;23.282;2023-05-07T03:02:39;6.97;;;5.13;;
6392;SDS011;3229;42.674;23.282;2023-05-07T03:05:06;6.10;;;5.20;;
6392;SDS011;3229;42.674;23.282;2023-05-07T03:07:35;6.27;;;5.20;;
6392;SDS011;3229;42.674;23.282;2023-05-07T03:10:02;5.70;;;5.10;;
6392;SDS011;3229;42.674;23.282;2023-05-07T03:12:29;6.40;;;5.00;;
6392;SDS011;3229;42.674;23.282;2023-05-07T03:14:56;5.27;;;4.53;;
6392;SDS011;3229;42.674;23.282;2023-05-07T03:17:23;6.13;;;4.97;;
6392;SDS011;3229;42.674;23.282;2023-05-07T03:19:49;5.00;;;4.10;;
6392;SDS011;3229;42.674;23.282;2023-05-07T03:22:16;6.20;;;5.10;;
6392;SDS011;3229;42.674;23.282;2023-05-07T03:24:44;6.93;;;5.23;;
6392;SDS011;3229;42.674;23.282;2023-05-07T03:27:11;6.23;;;4.67;;
6392;SDS011;3229;42.674;23.282;2023-05-07T03:29:38;6.57;;;4.83;;
6392;SDS011;3229;42.674;23.282;2023-05-07T03:32:05;7.77;;;4.63;;
6392;SDS011;3229;42.674;23.282;2023-05-07T03:34:31;6.13;;;5.00;;
6392;SDS011;3229;42.674;23.282;2023-05-07T03:36:58;7.67;;;5.90;;
6392;SDS011;3229;42.674;23.282;2023-05-07T03:39:25;7.63;;;5.07;;
6392;SDS011;3229;42.674;23.282;2023-05-07T03:41:53;6.77;;;5.60;;
6392;SDS011;3229;42.674;23.282;2023-05-07T03:44:20;8.27;;;4.80;;
6392;SDS011;3229;42.674;23.282;2023-05-07T03:46:47;6.33;;;5.10;;
6392;SDS011;3229;42.674;23.282;2023-05-07T03:49:14;5.43;;;4.93;;
6392;SDS011;3229;42.674;23.282;2023-05-07T03:51:40;5.87;;;4.67;;
6392;SDS011;3229;42.674;23.282;2023-05-07T03:54:07;7.00;;;5.10;;
6392;SDS011;3229;42.674;23.282;2023-05-07T03:56:34;5.87;;;5.30;;
6392;SDS011;3229;42.674;23.282;2023-05-07T03:59:02;7.07;;;5.07;;
6392;SDS011;3229;42.674;23.282;2023-05-07T04:01:29;4.97;;;4.57;;
6392;SDS011;3229;42.674;23.282;2023-05-07T04:03:56;5.77;;;5.10;;
6392;SDS011;3229;42.674;23.282;2023-05-07T04:06:23;5.80;;;5.23;;
6392;SDS011;3229;42.674;23.282;2023-05-07T04:08:50;11.67;;;5.07;;
6392;SDS011;3229;42.674;23.282;2023-05-07T04:11:17;7.60;;;5.73;;
6392;SDS011;3229;42.674;23.282;2023-05-07T04:13:43;6.00;;;4.80;;
6392;SDS011;3229;42.674;23.282;2023-05-07T04:16:12;5.33;;;4.83;;
6392;SDS011;3229;42.674;23.282;2023-05-07T04:18:38;6.43;;;4.63;;
6392;SDS011;3229;42.674;23.282;2023-05-07T04:21:05;8.07;;;5.03;;
6392;SDS011;3229;42.674;23.282;2023-05-07T04:23:39;6.83;;;5.10;;
6392;SDS011;3229;42.674;23.282;2023-05-07T04:26:06;6.10;;;4.77;;
6392;SDS011;3229;42.674;23.282;2023-05-07T04:28:33;7.17;;;5.07;;
6392;SDS011;3229;42.674;23.282;2023-05-07T04:31:00;6.33;;;5.10;;
6392;SDS011;3229;42.674;23.282;2023-05-07T04:33:28;6.67;;;5.40;;
6392;SDS011;3229;42.674;23.282;2023-05-07T04:35:55;7.60;;;4.87;;
6392;SDS011;3229;42.674;23.282;2023-05-07T04:38:22;6.17;;;4.77;;
6392;SDS011;3229;42.674;23.282;2023-05-07T04:40:49;5.70;;;5.10;;
6392;SDS011;3229;42.674;23.282;2023-05-07T04:43:16;6.20;;;4.60;;
6392;SDS011;3229;42.674;23.282;2023-05-07T04:45:43;7.83;;;5.60;;
6392;SDS011;3229;42.674;23.282;2023-05-07T04:48:10;5.90;;;4.80;;
6392;SDS011;3229;42.674;23.282;2023-05-07T04:50:38;4.80;;;4.40;;
6392;SDS011;3229;42.674;23.282;2023-05-07T04:53:05;5.50;;;5.00;;
6392;SDS011;3229;42.674;23.282;2023-05-07T04:55:32;4.57;;;4.13;;
6392;SDS011;3229;42.674;23.282;2023-05-07T04:57:59;6.87;;;4.80;;
6392;SDS011;3229;42.674;23.282;2023-05-07T05:00:27;6.77;;;4.50;;
6392;SDS011;3229;42.674;23.282;2023-05-07T05:02:53;4.67;;;4.20;;
6392;SDS011;3229;42.674;23.282;2023-05-07T05:05:20;4.13;;;3.53;;
6392;SDS011;3229;42.674;23.282;2023-05-07T05:07:48;5.10;;;4.27;;
6392;SDS011;3229;42.674;23.282;2023-05-07T05:10:16;5.20;;;3.80;;
6392;SDS011;3229;42.674;23.282;2023-05-07T05:12:43;4.22;;;3.72;;
6392;SDS011;3229;42.674;23.282;2023-05-07T05:15:10;4.07;;;3.60;;
6392;SDS011;3229;42.674;23.282;2023-05-07T05:17:37;4.07;;;3.67;;
6392;SDS011;3229;42.674;23.282;2023-05-07T05:20:05;4.47;;;3.85;;
6392;SDS011;3229;42.674;23.282;2023-05-07T05:22:32;7.00;;;4.00;;
6392;SDS011;3229;42.674;23.282;2023-05-07T05:25:00;4.07;;;3.67;;
6392;SDS011;3229;42.674;23.282;2023-05-07T05:27:27;5.10;;;3.53;;
6392;SDS011;3229;42.674;23.282;2023-05-07T05:29:55;3.85;;;3.53;;
6392;SDS011;3229;42.674;23.282;2023-05-07T05:32:22;3.83;;;3.50;;
6392;SDS011;3229;42.674;23.282;2023-05-07T05:34:48;5.90;;;3.70;;
6392;SDS011;3229;42.674;23.282;2023-05-07T05:37:16;4.13;;;3.40;;
6392;SDS011;3229;42.674;23.282;2023-05-07T05:39:43;4.88;;;3.88;;
6392;SDS011;3229;42.674;23.282;2023-05-07T05:42:11;5.20;;;3.80;;
6392;SDS011;3229;42.674;23.282;2023-05-07T05:44:37;3.83;;;3.53;;
6392;SDS011;3229;42.674;23.282;2023-05-07T05:47:04;4.95;;;3.42;;
6392;SDS011;3229;42.674;23.282;2023-05-07T05:49:31;3.38;;;3.08;;
6392;SDS011;3229;42.674;23.282;2023-05-07T05:51:58;3.53;;;3.22;;
6392;SDS011;3229;42.674;23.282;2023-05-07T05:54:25;2.88;;;2.67;;
6392;SDS011;3229;42.674;23.282;2023-05-07T05:56:52;5.38;;;3.70;;
6392;SDS011;3229;42.674;23.282;2023-05-07T05:59:20;3.30;;;2.83;;
6392;SDS011;3229;42.674;23.282;2023-05-07T06:01:47;3.42;;;3.15;;
6392;SDS011;3229;42.674;23.282;2023-05-07T06:04:14;3.40;;;3.10;;
6392;SDS011;3229;42.674;23.282;2023-05-07T06:06:41;3.45;;;3.15;;
6392;SDS011;3229;42.674;23.282;2023-05-07T06:09:07;3.05;;;2.85;;
6392;SDS011;3229;42.674;23.282;2023-05-07T06:11:34;3.50;;;3.20;;
6392;SDS011;3229;42.674;23.282;2023-05-07T06:14:01;3.42;;;3.13;;
6392;SDS011;3229;42.674;23.282;2023-05-07T06:16:30;4.65;;;3.20;;
6392;SDS011;3229;42.674;23.282;2023-05-07T06:18:56;3.70;;;3.20;;
6392;SDS011;3229;42.674;23.282;2023-05-07T06:21:23;3.15;;;2.85;;
6392;SDS011;3229;42.674;23.282;2023-05-07T06:23:50;3.50;;;3.20;;
6392;SDS011;3229;42.674;23.282;2023-05-07T06:26:17;5.07;;;3.10;;
6392;SDS011;3229;42.674;23.282;2023-05-07T06:28:44;4.05;;;3.38;;
6392;SDS011;3229;42.674;23.282;2023-05-07T06:31:11;3.72;;;3.20;;
6392;SDS011;3229;42.674;23.282;2023-05-07T06:33:40;3.38;;;3.13;;
6392;SDS011;3229;42.674;23.282;2023-05-07T06:36:08;3.22;;;2.88;;
6392;SDS011;3229;42.674;23.282;2023-05-07T06:38:35;3.20;;;2.90;;
6392;SDS011;3229;42.674;23.282;2023-05-07T06:41:02;4.13;;;3.03;;
6392;SDS011;3229;42.674;23.282;2023-05-07T06:43:28;4.13;;;3.70;;
6392;SDS011;3229;42.674;23.282;2023-05-07T06:45:55;4.30;;;3.10;;
6392;SDS011;3229;42.674;23.282;2023-05-07T06:48:22;3.30;;;3.00;;
6392;SDS011;3229;42.674;23.282;2023-05-07T06:50:50;3.38;;;3.08;;
6392;SDS011;3229;42.674;23.282;2023-05-07T06:53:17;4.22;;;3.65;;
6392;SDS011;3229;42.674;23.282;2023-05-07T06:55:44;3.00;;;2.75;;
6392;SDS011;3229;42.674;23.282;2023-05-07T06:58:10;3.40;;;3.10;;
6392;SDS011;3229;42.674;23.282;2023-05-07T07:00:37;3.63;;;3.33;;
6392;SDS011;3229;42.674;23.282;2023-05-07T07:03:04;2.85;;;2.65;;
6392;SDS011;3229;42.674;23.282;2023-05-07T07:05:31;3.53;;;3.22;;
6392;SDS011;3229;42.674;23.282;2023-05-07T07:07:59;6.68;;;3.10;;
6392;SDS011;3229;42.674;23.282;2023-05-07T07:10:26;5.80;;;3.20;;
6392;SDS011;3229;42.674;23.282;2023-05-07T07:12:52;3.42;;;3.13;;
6392;SDS011;3229;42.674;23.282;2023-05-07T07:15:19;4.13;;;3.72;;
6392;SDS011;3229;42.674;23.282;2023-05-07T07:17:47;3.00;;;2.80;;
6392;SDS011;3229;42.674;23.282;2023-05-07T07:20:14;3.30;;;3.10;;
6392;SDS011;3229;42.674;23.282;2023-05-07T07:22:41;4.85;;;3.17;;
6392;SDS011;3229;42.674;23.282;2023-05-07T07:25:09;4.63;;;3.40;;
6392;SDS011;3229;42.674;23.282;2023-05-07T07:27:37;3.33;;;3.13;;
6392;SDS011;3229;42.674;23.282;2023-05-07T07:30:05;3.38;;;3.03;;
6392;SDS011;3229;42.674;23.282;2023-05-07T07:32:33;3.65;;;3.30;;
6392;SDS011;3229;42.674;23.282;2023-05-07T07:35:00;3.65;;;3.33;;
6392;SDS011;3229;42.674;23.282;2023-05-07T07:37:27;3.50;;;3.13;;
6392;SDS011;3229;42.674;23.282;2023-05-07T07:39:54;3.88;;;3.10;;
6392;SDS011;3229;42.674;23.282;2023-05-07T07:42:23;3.33;;;3.08;;
6392;SDS011;3229;42.674;23.282;2023-05-07T07:44:49;3.83;;;3.45;;
6392;SDS011;3229;42.674;23.282;2023-05-07T07:47:16;3.63;;;3.33;;
6392;SDS011;3229;42.674;23.282;2023-05-07T07:49:43;3.20;;;2.95;;
6392;SDS011;3229;42.674;23.282;2023-05-07T07:52:10;3.58;;;3.28;;
6392;SDS011;3229;42.674;23.282;2023-05-07T07:54:37;4.95;;;3.38;;
6392;SDS011;3229;42.674;23.282;2023-05-07T07:57:03;3.50;;;3.13;;
6392;SDS011;3229;42.674;23.282;2023-05-07T07:59:32;3.85;;;3.00;;
6392;SDS011;3229;42.674;23.282;2023-05-07T08:01:59;3.13;;;2.92;;
6392;SDS011;3229;42.674;23.282;2023-05-07T08:04:26;3.20;;;2.90;;
6392;SDS011;3229;42.674;23.282;2023-05-07T08:06:52;5.07;;;3.45;;
6392;SDS011;3229;42.674;23.282;2023-05-07T08:09:21;4.07;;;3.08;;
6392;SDS011;3229;42.674;23.282;2023-05-07T08:11:47;3.97;;;3.28;;
6392;SDS011;3229;42.674;23.282;2023-05-07T08:14:14;4.53;;;3.00;;
6392;SDS011;3229;42.674;23.282;2023-05-07T08:16:43;3.42;;;3.00;;
6392;SDS011;3229;42.674;23.282;2023-05-07T08:19:10;3.75;;;3.08;;
6392;SDS011;3229;42.674;23.282;2023-05-07T08:21:38;3.42;;;3.08;;
6392;SDS011;3229;42.674;23.282;2023-05-07T08:24:05;3.05;;;2.85;;
6392;SDS011;3229;42.674;23.282;2023-05-07T08:26:32;3.28;;;2.78;;
6392;SDS011;3229;42.674;23.282;2023-05-07T08:29:00;4.38;;;3.13;;
6392;SDS011;3229;42.674;23.282;2023-05-07T08:31:27;4.55;;;3.38;;
6392;SDS011;3229;42.674;23.282;2023-05-07T08:33:55;3.75;;;3.13;;
6392;SDS011;3229;42.674;23.282;2023-05-07T08:36:23;5.70;;;3.38;;
6392;SDS011;3229;42.674;23.282;2023-05-07T08:38:50;3.95;;;3.33;;
6392;SDS011;3229;42.674;23.282;2023-05-07T08:41:17;3.30;;;3.00;;
6392;SDS011;3229;42.674;23.282;2023-05-07T08:43:46;3.20;;;3.00;;
6392;SDS011;3229;42.674;23.282;2023-05-07T08:46:16;3.33;;;3.03;;
6392;SDS011;3229;42.674;23.282;2023-05-07T08:48:44;3.60;;;3.28;;
6392;SDS011;3229;42.674;23.282;2023-05-07T08:51:14;3.05;;;2.85;;
6392;SDS011;3229;42.674;23.282;2023-05-07T08:53:42;3.65;;;3.10;;
6392;SDS011;3229;42.674;23.282;2023-05-07T08:56:09;4.95;;;3.05;;
6392;SDS011;3229;42.674;23.282;2023-05-07T08:58:37;4.97;;;3.30;;
6392;SDS011;3229;42.674;23.282;2023-05-07T09:01:06;4.57;;;3.25;;
6392;SDS011;3229;42.674;23.282;2023-05-07T09:03:36;3.45;;;3.17;;
6392;SDS011;3229;42.674;23.282;2023-05-07T09:06:04;3.88;;;3.10;;
6392;SDS011;3229;42.674;23.282;2023-05-07T09:08:33;3.72;;;3.38;;
6392;SDS011;3229;42.674;23.282;2023-05-07T09:11:01;3.72;;;3.42;;
6392;SDS011;3229;42.674;23.282;2023-05-07T09:13:28;3.40;;;3.08;;
6392;SDS011;3229;42.674;23.282;2023-05-07T09:15:55;3.15;;;2.95;;
6392;SDS011;3229;42.674;23.282;2023-05-07T09:18:23;3.70;;;3.22;;
6392;SDS011;3229;42.674;23.282;2023-05-07T09:20:50;3.60;;;3.30;;
6392;SDS011;3229;42.674;23.282;2023-05-07T09:23:17;3.70;;;3.30;;
6392;SDS011;3229;42.674;23.282;2023-05-07T09:25:45;3.50;;;3.20;;
6392;SDS011;3229;42.674;23.282;2023-05-07T09:28:12;3.72;;;3.17;;
6392;SDS011;3229;42.674;23.282;2023-05-07T09:30:39;3.10;;;2.90;;
6392;SDS011;3229;42.674;23.282;2023-05-07T09:33:07;3.58;;;3.22;;
6392;SDS011;3229;42.674;23.282;2023-05-07T09:35:34;4.13;;;3.53;;
6392;SDS011;3229;42.674;23.282;2023-05-07T09:38:01;3.10;;;2.90;;
6392;SDS011;3229;42.674;23.282;2023-05-07T09:40:28;3.63;;;3.22;;
6392;SDS011;3229;42.674;23.282;2023-05-07T09:43:01;4.25;;;2.92;;
6392;SDS011;3229;42.674;23.282;2023-05-07T09:45:36;3.30;;;3.00;;
6392;SDS011;3229;42.674;23.282;2023-05-07T09:48:04;3.50;;;3.20;;
6392;SDS011;3229;42.674;23.282;2023-05-07T09:50:32;5.72;;;3.58;;
6392;SDS011;3229;42.674;23.282;2023-05-07T09:53:03;3.47;;;3.10;;
6392;SDS011;3229;42.674;23.282;2023-05-07T09:55:30;3.60;;;2.80;;
6392;SDS011;3229;42.674;23.282;2023-05-07T09:57:58;5.35;;;2.80;;
6392;SDS011;3229;42.674;23.282;2023-05-07T10:00:27;5.05;;;3.17;;
6392;SDS011;3229;42.674;23.282;2023-05-07T10:02:55;3.22;;;2.90;;
6392;SDS011;3229;42.674;23.282;2023-05-07T10:05:23;3.17;;;2.72;;
6392;SDS011;3229;42.674;23.282;2023-05-07T10:07:51;3.22;;;2.97;;
6392;SDS011;3229;42.674;23.282;2023-05-07T10:10:19;3.28;;;2.97;;
6392;SDS011;3229;42.674;23.282;2023-05-07T10:12:46;3.88;;;2.97;;
6392;SDS011;3229;42.674;23.282;2023-05-07T10:15:15;4.13;;;3.67;;
6392;SDS011;3229;42.674;23.282;2023-05-07T10:17:42;4.32;;;3.22;;
6392;SDS011;3229;42.674;23.282;2023-05-07T10:20:10;5.28;;;3.50;;
6392;SDS011;3229;42.674;23.282;2023-05-07T10:22:38;3.80;;;2.95;;
6392;SDS011;3229;42.674;23.282;2023-05-07T10:25:09;4.78;;;2.80;;
6392;SDS011;3229;42.674;23.282;2023-05-07T10:27:40;3.15;;;2.85;;
6392;SDS011;3229;42.674;23.282;2023-05-07T10:30:12;4.68;;;3.17;;
6392;SDS011;3229;42.674;23.282;2023-05-07T10:32:48;3.95;;;3.08;;
6392;SDS011;3229;42.674;23.282;2023-05-07T10:35:17;7.38;;;3.20;;
6392;SDS011;3229;42.674;23.282;2023-05-07T10:37:47;3.33;;;2.85;;
6392;SDS011;3229;42.674;23.282;2023-05-07T10:40:15;3.00;;;2.78;;
6392;SDS011;3229;42.674;23.282;2023-05-07T10:42:55;2.70;;;2.50;;
6392;SDS011;3229;42.674;23.282;2023-05-07T10:45:26;3.72;;;3.42;;
6392;SDS011;3229;42.674;23.282;2023-05-07T10:48:10;3.40;;;3.10;;
6392;SDS011;3229;42.674;23.282;2023-05-07T10:50:38;3.17;;;2.88;;
6392;SDS011;3229;42.674;23.282;2023-05-07T10:53:21;3.40;;;2.92;;
6392;SDS011;3229;42.674;23.282;2023-05-07T11:02:07;4.10;;;2.72;;
6392;SDS011;3229;42.674;23.282;2023-05-07T11:04:36;3.33;;;3.03;;
6392;SDS011;3229;42.674;23.282;2023-05-07T11:10:02;2.95;;;2.75;;
6392;SDS011;3229;42.674;23.282;2023-05-07T11:12:49;4.30;;;2.97;;
6392;SDS011;3229;42.674;23.282;2023-05-07T11:15:39;3.17;;;2.97;;
6392;SDS011;3229;42.674;23.282;2023-05-07T11:18:09;3.05;;;2.72;;
6392;SDS011;3229;42.674;23.282;2023-05-07T11:20:44;3.00;;;2.78;;
6392;SDS011;3229;42.674;23.282;2023-05-07T11:26:25;3.60;;;3.17;;
6392;SDS011;3229;42.674;23.282;2023-05-07T11:28:53;3.13;;;2.83;;
6392;SDS011;3229;42.674;23.282;2023-05-07T11:31:21;4.38;;;3.13;;
6392;SDS011;3229;42.674;23.282;2023-05-07T11:33:52;3.35;;;3.05;;
6392;SDS011;3229;42.674;23.282;2023-05-07T11:36:20;3.10;;;2.65;;
6392;SDS011;3229;42.674;23.282;2023-05-07T11:38:48;3.22;;;2.92;;
6392;SDS011;3229;42.674;23.282;2023-05-07T11:41:15;2.83;;;2.63;;
6392;SDS011;3229;42.674;23.282;2023-05-07T11:43:57;2.85;;;2.63;;
6392;SDS011;3229;42.674;23.282;2023-05-07T11:46:24;3.40;;;3.10;;
6392;SDS011;3229;42.674;23.282;2023-05-07T11:48:54;4.53;;;2.95;;
6392;SDS011;3229;42.674;23.282;2023-05-07T11:51:22;4.32;;;3.08;;
6392;SDS011;3229;42.674;23.282;2023-05-07T11:53:51;2.95;;;2.70;;
6392;SDS011;3229;42.674;23.282;2023-05-07T11:56:18;2.97;;;2.78;;
6392;SDS011;3229;42.674;23.282;2023-05-07T11:58:45;3.00;;;2.80;;
6392;SDS011;3229;42.674;23.282;2023-05-07T12:01:13;3.30;;;3.00;;
6392;SDS011;3229;42.674;23.282;2023-05-07T12:03:42;3.83;;;3.00;;
6392;SDS011;3229;42.674;23.282;2023-05-07T12:06:12;4.13;;;2.90;;
6392;SDS011;3229;42.674;23.282;2023-05-07T12:08:41;4.10;;;3.10;;
6392;SDS011;3229;42.674;23.282;2023-05-07T12:11:09;4.40;;;3.15;;
6392;SDS011;3229;42.674;23.282;2023-05-07T12:13:38;4.97;;;3.40;;
6392;SDS011;3229;42.674;23.282;2023-05-07T12:16:05;3.17;;;2.92;;
6392;SDS011;3229;42.674;23.282;2023-05-07T12:18:36;4.15;;;3.75;;
6392;SDS011;3229;42.674;23.282;2023-05-07T12:21:04;3.15;;;2.70;;
6392;SDS011;3229;42.674;23.282;2023-05-07T12:23:34;3.50;;;3.20;;
6392;SDS011;3229;42.674;23.282;2023-05-07T12:26:02;2.85;;;2.65;;
6392;SDS011;3229;42.674;23.282;2023-05-07T12:28:29;3.33;;;2.67;;
6392;SDS011;3229;42.674;23.282;2023-05-07T12:30:57;3.50;;;3.20;;
6392;SDS011;3229;42.674;23.282;2023-05-07T12:33:25;10.45;;;2.80;;
6392;SDS011;3229;42.674;23.282;2023-05-07T12:35:54;2.90;;;2.60;;
6392;SDS011;3229;42.674;23.282;2023-05-07T12:38:22;3.70;;;2.60;;
6392;SDS011;3229;42.674;23.282;2023-05-07T12:40:53;3.05;;;2.75;;
6392;SDS011;3229;42.674;23.282;2023-05-07T12:43:21;3.22;;;3.00;;
6392;SDS011;3229;42.674;23.282;2023-05-07T12:45:50;4.20;;;2.42;;
6392;SDS011;3229;42.674;23.282;2023-05-07T12:48:20;3.47;;;2.47;;
6392;SDS011;3229;42.674;23.282;2023-05-07T12:50:48;2.85;;;2.65;;
6392;SDS011;3229;42.674;23.282;2023-05-07T12:53:16;3.78;;;3.28;;
6392;SDS011;3229;42.674;23.282;2023-05-07T12:55:43;3.35;;;2.95;;
6392;SDS011;3229;42.674;23.282;2023-05-07T12:58:16;2.72;;;2.53;;
6392;SDS011;3229;42.674;23.282;2023-05-07T13:00:44;5.35;;;3.00;;
6392;SDS011;3229;42.674;23.282;2023-05-07T13:03:11;2.92;;;2.63;;
6392;SDS011;3229;42.674;23.282;2023-05-07T13:05:38;4.03;;;2.90;;
6392;SDS011;3229;42.674;23.282;2023-05-07T13:08:05;3.35;;;2.85;;
6392;SDS011;3229;42.674;23.282;2023-05-07T13:10:34;2.78;;;2.47;;
6392;SDS011;3229;42.674;23.282;2023-05-07T13:13:01;4.72;;;2.65;;
6392;SDS011;3229;42.674;23.282;2023-05-07T13:15:30;3.20;;;2.78;;
6392;SDS011;3229;42.674;23.282;2023-05-07T13:17:57;2.92;;;2.63;;
6392;SDS011;3229;42.674;23.282;2023-05-07T13:20:23;2.90;;;2.70;;
6392;SDS011;3229;42.674;23.282;2023-05-07T13:22:50;3.22;;;2.70;;
6392;SDS011;3229;42.674;23.282;2023-05-07T13:25:17;2.65;;;2.45;;
6392;SDS011;3229;42.674;23.282;2023-05-07T13:27:44;3.05;;;2.63;;
6392;SDS011;3229;42.674;23.282;2023-05-07T13:30:11;2.67;;;2.47;;
6392;SDS011;3229;42.674;23.282;2023-05-07T13:32:39;3.20;;;2.90;;
6392;SDS011;3229;42.674;23.282;2023-05-07T13:35:07;2.70;;;2.50;;
6392;SDS011;3229;42.674;23.282;2023-05-07T13:37:34;2.80;;;2.60;;
6392;SDS011;3229;42.674;23.282;2023-05-07T13:40:01;2.72;;;2.50;;
6392;SDS011;3229;42.674;23.282;2023-05-07T13:42:28;2.67;;;2.47;;
6392;SDS011;3229;42.674;23.282;2023-05-07T13:44:55;2.97;;;2.60;;
6392;SDS011;3229;42.674;23.282;2023-05-07T13:47:22;3.00;;;2.80;;
6392;SDS011;3229;42.674;23.282;2023-05-07T13:49:51;2.75;;;2.55;;
6392;SDS011;3229;42.674;23.282;2023-05-07T13:52:17;2.95;;;2.70;;
6392;SDS011;3229;42.674;23.282;2023-05-07T13:54:45;3.30;;;3.00;;
6392;SDS011;3229;42.674;23.282;2023-05-07T13:57:12;2.58;;;2.38;;
6392;SDS011;3229;42.674;23.282;2023-05-07T13:59:38;2.95;;;2.65;;
6392;SDS011;3229;42.674;23.282;2023-05-07T14:02:05;2.95;;;2.75;;
6392;SDS011;3229;42.674;23.282;2023-05-07T14:04:33;4.43;;;2.97;;
6392;SDS011;3229;42.674;23.282;2023-05-07T14:07:01;3.05;;;2.75;;
6392;SDS011;3229;42.674;23.282;2023-05-07T14:09:27;2.83;;;2.63;;
6392;SDS011;3229;42.674;23.282;2023-05-07T14:11:54;4.13;;;2.80;;
6392;SDS011;3229;42.674;23.282;2023-05-07T14:14:21;2.80;;;2.60;;
6392;SDS011;3229;42.674;23.282;2023-05-07T14:16:48;2.78;;;2.58;;
6392;SDS011;3229;42.674;23.282;2023-05-07T14:19:14;3.25;;;2.80;;
6392;SDS011;3229;42.674;23.282;2023-05-07T14:21:41;2.92;;;2.72;;
6392;SDS011;3229;42.674;23.282;2023-05-07T14:24:09;2.88;;;2.65;;
6392;SDS011;3229;42.674;23.282;2023-05-07T14:26:36;2.65;;;2.40;;
6392;SDS011;3229;42.674;23.282;2023-05-07T14:29:03;2.78;;;2.58;;
6392;SDS011;3229;42.674;23.282;2023-05-07T14:31:30;2.78;;;2.58;;
6392;SDS011;3229;42.674;23.282;2023-05-07T14:33:57;3.72;;;2.75;;
6392;SDS011;3229;42.674;23.282;2023-05-07T14:36:25;2.90;;;2.70;;
6392;SDS011;3229;42.674;23.282;2023-05-07T14:38:52;2.80;;;2.60;;
6392;SDS011;3229;42.674;23.282;2023-05-07T14:41:21;3.03;;;2.80;;
6392;SDS011;3229;42.674;23.282;2023-05-07T14:43:48;2.72;;;2.53;;
6392;SDS011;3229;42.674;23.282;2023-05-07T14:46:16;3.97;;;2.75;;
6392;SDS011;3229;42.674;23.282;2023-05-07T14:48:43;3.17;;;2.88;;
6392;SDS011;3229;42.674;23.282;2023-05-07T14:51:11;2.47;;;2.28;;
6392;SDS011;3229;42.674;23.282;2023-05-07T14:53:38;2.70;;;2.50;;
6392;SDS011;3229;42.674;23.282;2023-05-07T14:56:05;2.80;;;2.60;;
6392;SDS011;3229;42.674;23.282;2023-05-07T14:58:33;2.75;;;2.47;;
6392;SDS011;3229;42.674;23.282;2023-05-07T15:01:00;2.85;;;2.50;;
6392;SDS011;3229;42.674;23.282;2023-05-07T15:03:27;2.90;;;2.70;;
6392;SDS011;3229;42.674;23.282;2023-05-07T15:05:54;2.75;;;2.55;;
6392;SDS011;3229;42.674;23.282;2023-05-07T15:08:21;3.10;;;2.80;;
6392;SDS011;3229;42.674;23.282;2023-05-07T15:10:48;3.15;;;2.85;;
6392;SDS011;3229;42.674;23.282;2023-05-07T15:13:15;2.28;;;2.15;;
6392;SDS011;3229;42.674;23.282;2023-05-07T15:15:43;2.50;;;2.30;;